Time;durP1;ratioP1;P1;durP2;ratioP2;P2;SDS_P1;SDS_P2;PMS_P1;PMS_P2;Temp;Humidity;BMP_temperature;BMP_pressure;BME280_temperature;BME280_humidity;BME280_pressure;Samples;Min_cycle;Max_cycle;Signal;HPM_P1;HPM_P2
2022/10/02 00:02:20;;;;;;;16.88;3.72;;;13.50;99.90;;;;;;5030778;28;20026;-75
2022/10/02 00:04:56;;;;;;;18.73;3.80;;;13.50;99.90;;;;;;5030985;28;20421;-75
2022/10/02 00:07:33;;;;;;;17.02;3.80;;;13.50;99.90;;;;;;5030633;28;20113;-74
2022/10/02 00:10:35;;;;;;;17.02;3.83;;;13.50;99.90;;;;;;5030697;28;20044;-75
2022/10/02 00:13:05;;;;;;;23.88;3.72;;;13.50;99.90;;;;;;5016315;28;20049;-74
2022/10/02 00:15:34;;;;;;;19.50;3.33;;;13.50;99.90;;;;;;5030813;28;20474;-74
2022/10/02 00:18:23;;;;;;;16.63;3.95;;;13.60;99.90;;;;;;5030603;28;20080;-76
2022/10/02 00:21:01;;;;;;;16.17;3.22;;;13.50;99.90;;;;;;5030472;28;20029;-75
2022/10/02 00:23:40;;;;;;;27.33;4.20;;;13.60;99.90;;;;;;5030862;28;20026;-74
2022/10/02 00:26:28;;;;;;;18.80;3.65;;;13.60;99.90;;;;;;5030669;28;20029;-75
2022/10/02 00:29:15;;;;;;;26.90;5.28;;;13.60;99.90;;;;;;5030560;28;20029;-75
2022/10/02 00:32:12;;;;;;;32.47;4.97;;;13.70;99.90;;;;;;5030559;28;20029;-75
2022/10/02 00:34:57;;;;;;;19.90;3.67;;;13.60;99.90;;;;;;5015312;28;20095;-75
2022/10/02 00:37:54;;;;;;;23.75;3.95;;;13.60;99.90;;;;;;5030376;28;20408;-75
2022/10/02 00:40:58;;;;;;;21.90;3.60;;;13.60;99.90;;;;;;5030030;28;20040;-75
2022/10/02 00:43:49;;;;;;;23.48;4.05;;;13.60;99.90;;;;;;5006633;28;20124;-75
2022/10/02 00:46:20;;;;;;;17.67;3.40;;;13.60;99.90;;;;;;5030338;28;20426;-75
2022/10/02 00:48:50;;;;;;;19.25;4.05;;;13.60;99.90;;;;;;5028996;28;20064;-76
2022/10/02 00:51:48;;;;;;;13.23;2.97;;;13.60;99.90;;;;;;5029063;28;20068;-74
2022/10/02 00:54:39;;;;;;;16.03;3.27;;;13.60;99.90;;;;;;5013041;28;20048;-74
2022/10/02 00:57:14;;;;;;;24.98;3.70;;;13.70;99.90;;;;;;5030695;28;20032;-75
2022/10/02 00:59:58;;;;;;;20.67;3.72;;;13.70;99.90;;;;;;5030587;28;20103;-75
2022/10/02 01:02:30;;;;;;;24.40;4.15;;;13.70;99.90;;;;;;5034212;28;20032;-75
2022/10/02 01:04:59;;;;;;;32.33;4.45;;;13.80;99.90;;;;;;5033277;28;20037;-75
2022/10/02 01:07:26;;;;;;;22.15;3.28;;;13.80;99.90;;;;;;5034349;28;20021;-77
2022/10/02 01:09:52;;;;;;;20.67;3.67;;;13.80;99.90;;;;;;5033896;28;20490;-75
2022/10/02 01:12:18;;;;;;;24.40;4.05;;;13.80;99.90;;;;;;5033816;28;20040;-75
2022/10/02 01:14:45;;;;;;;22.92;3.60;;;13.70;99.90;;;;;;5033619;28;20033;-75
2022/10/02 01:17:32;;;;;;;20.85;4.22;;;13.80;99.90;;;;;;5033328;28;20041;-75
2022/10/02 01:20:04;;;;;;;22.27;3.40;;;13.80;99.90;;;;;;5032065;28;20033;-75
2022/10/02 01:22:38;;;;;;;19.13;4.13;;;13.80;99.90;;;;;;5033303;28;20649;-76
2022/10/02 01:25:06;;;;;;;25.80;4.53;;;13.80;99.90;;;;;;5032159;28;20026;-74
2022/10/02 01:27:33;;;;;;;23.52;4.63;;;13.80;99.90;;;;;;5033236;28;20030;-76
2022/10/02 01:30:03;;;;;;;17.15;4.70;;;13.80;99.90;;;;;;5031866;28;20036;-75
2022/10/02 01:32:30;;;;;;;24.15;4.55;;;13.70;99.90;;;;;;5033193;28;20037;-75
2022/10/02 01:34:56;;;;;;;21.73;4.13;;;13.80;99.90;;;;;;5033253;28;20025;-75
2022/10/02 01:37:26;;;;;;;25.50;4.30;;;13.80;99.90;;;;;;5031841;28;20486;-76
2022/10/02 01:39:52;;;;;;;21.45;4.47;;;13.80;99.90;;;;;;5032873;28;20616;-75
2022/10/02 01:42:20;;;;;;;19.17;3.97;;;13.80;99.90;;;;;;5032990;28;20398;-75
2022/10/02 01:44:47;;;;;;;25.98;4.57;;;13.80;99.90;;;;;;5033111;28;20636;-76
2022/10/02 01:47:20;;;;;;;19.33;4.07;;;13.80;99.90;;;;;;5032896;28;20041;-76
2022/10/02 01:49:54;;;;;;;20.52;4.20;;;13.80;99.90;;;;;;5031426;28;20026;-76
2022/10/02 01:52:23;;;;;;;24.40;4.20;;;13.80;99.90;;;;;;5032900;28;20076;-76
2022/10/02 01:55:10;;;;;;;23.00;4.30;;;13.80;99.90;;;;;;5032858;28;20025;-77
2022/10/02 01:57:51;;;;;;;24.77;5.05;;;13.80;99.90;;;;;;5032667;28;20107;-76
2022/10/02 02:00:21;;;;;;;25.10;4.95;;;13.80;99.90;;;;;;5032377;28;20029;-76
2022/10/02 02:02:51;;;;;;;26.58;4.30;;;13.80;99.90;;;;;;5032586;28;20115;-75
2022/10/02 02:05:22;;;;;;;28.80;5.32;;;13.80;99.90;;;;;;5032566;28;20474;-75
2022/10/02 02:07:59;;;;;;;23.75;4.18;;;13.80;99.90;;;;;;5032365;28;20056;-76
2022/10/02 02:10:41;;;;;;;20.88;4.18;;;13.80;99.90;;;;;;5032550;28;20021;-75
2022/10/02 02:13:29;;;;;;;22.83;4.25;;;13.80;99.90;;;;;;5031061;28;20078;-75
2022/10/02 02:16:07;;;;;;;28.73;4.65;;;13.80;99.90;;;;;;5032032;28;20036;-75
2022/10/02 02:18:42;;;;;;;25.38;4.68;;;13.80;99.90;;;;;;5030924;28;20401;-75
2022/10/02 02:21:16;;;;;;;25.95;4.28;;;13.80;99.90;;;;;;5031863;28;20021;-75
2022/10/02 02:23:43;;;;;;;24.08;4.47;;;13.80;99.90;;;;;;5030809;28;20033;-76
2022/10/02 02:26:11;;;;;;;27.88;4.18;;;13.80;99.90;;;;;;5032055;28;20112;-76
2022/10/02 02:28:42;;;;;;;23.35;6.00;;;13.80;99.90;;;;;;5030847;28;20025;-76
2022/10/02 02:31:13;;;;;;;22.13;4.80;;;13.80;99.90;;;;;;5032058;28;20148;-75
2022/10/02 02:33:42;;;;;;;22.85;4.22;;;13.80;99.90;;;;;;5031960;28;20029;-76
2022/10/02 02:36:12;;;;;;;25.20;5.15;;;13.80;99.90;;;;;;5031746;28;20036;-76
2022/10/02 02:39:01;;;;;;;23.80;3.72;;;13.80;99.90;;;;;;5031863;28;20033;-76
2022/10/02 02:41:31;;;;;;;28.60;4.55;;;13.80;99.90;;;;;;5029737;28;20037;-75
2022/10/02 02:44:16;;;;;;;21.80;3.85;;;13.80;99.90;;;;;;5031887;28;20037;-75
2022/10/02 02:47:05;;;;;;;23.10;4.18;;;13.80;99.90;;;;;;5031747;28;20360;-76
2022/10/02 02:50:07;;;;;;;27.88;4.45;;;13.80;99.90;;;;;;5031534;28;20033;-76
2022/10/02 02:52:54;;;;;;;27.95;4.72;;;13.80;99.90;;;;;;5024226;28;20056;-76
2022/10/02 02:55:33;;;;;;;17.25;3.83;;;13.80;99.90;;;;;;5030444;28;20033;-76
2022/10/02 02:58:14;;;;;;;16.75;3.72;;;13.90;99.90;;;;;;5031577;28;20028;-77
2022/10/02 03:00:40;;;;;;;31.42;4.75;;;13.80;99.90;;;;;;5013452;28;20487;-76
2022/10/02 03:03:06;;;;;;;30.08;4.35;;;13.80;99.90;;;;;;5031504;28;20025;-76
2022/10/02 03:05:34;;;;;;;24.25;4.07;;;13.90;99.90;;;;;;5031473;28;20026;-75
2022/10/02 03:08:10;;;;;;;24.70;4.47;;;13.80;99.90;;;;;;5031527;28;20026;-75
2022/10/02 03:10:57;;;;;;;28.75;5.57;;;13.80;99.90;;;;;;5031159;28;20029;-77
2022/10/02 03:13:41;;;;;;;22.35;3.65;;;13.80;99.90;;;;;;5031332;28;20446;-76
2022/10/02 03:16:10;;;;;;;22.73;4.00;;;13.80;99.90;;;;;;5031203;28;20029;-76
2022/10/02 03:18:54;;;;;;;29.85;4.70;;;13.90;99.90;;;;;;5030988;28;20028;-76
2022/10/02 03:21:28;;;;;;;25.90;4.38;;;13.90;99.90;;;;;;5031097;28;20640;-76
2022/10/02 03:24:10;;;;;;;25.88;5.25;;;13.80;99.90;;;;;;5030736;28;20025;-76
2022/10/02 03:26:42;;;;;;;21.75;3.58;;;13.80;99.90;;;;;;5029781;28;20025;-76
2022/10/02 03:29:21;;;;;;;22.90;5.10;;;13.80;99.90;;;;;;5031142;28;20037;-76
2022/10/02 03:31:48;;;;;;;24.55;4.43;;;13.90;99.90;;;;;;5031292;28;20026;-77
2022/10/02 03:34:16;;;;;;;25.50;4.35;;;13.80;99.90;;;;;;5031399;28;20053;-76
2022/10/02 03:36:43;;;;;;;24.50;3.95;;;13.80;99.90;;;;;;5030834;28;20080;-75
2022/10/02 03:39:09;;;;;;;29.15;4.65;;;13.90;99.90;;;;;;5030788;28;20030;-76
2022/10/02 03:41:35;;;;;;;24.85;4.15;;;13.80;99.90;;;;;;5124229;22;20162;-71
2022/10/02 03:44:01;;;;;;;21.77;3.53;;;13.90;99.90;;;;;;5071358;28;20704;-71
2022/10/02 03:46:27;;;;;;;25.95;3.80;;;13.90;99.90;;;;;;5070922;28;20078;-70
2022/10/02 03:48:55;;;;;;;27.88;4.18;;;13.90;99.90;;;;;;5071015;28;20392;-70
2022/10/02 03:51:22;;;;;;;33.75;5.78;;;13.90;99.90;;;;;;5070829;28;20021;-72
2022/10/02 03:53:49;;;;;;;27.33;4.32;;;13.90;99.90;;;;;;5052744;28;20492;-70
2022/10/02 03:56:40;;;;;;;26.25;4.78;;;14.00;99.90;;;;;;5070598;28;20493;-70
2022/10/02 03:59:17;;;;;;;32.83;4.95;;;14.00;99.90;;;;;;5070547;28;20033;-73
2022/10/02 04:01:49;;;;;;;29.63;5.07;;;14.00;99.90;;;;;;5070289;28;20090;-70
2022/10/02 04:04:27;;;;;;;24.75;3.92;;;14.10;99.90;;;;;;5070700;28;20025;-70
2022/10/02 04:07:03;;;;;;;24.25;4.00;;;14.10;99.90;;;;;;5070743;28;20443;-70
2022/10/02 04:09:38;;;;;;;23.52;4.03;;;14.10;99.90;;;;;;5070631;28;20032;-74
2022/10/02 04:12:15;;;;;;;24.48;3.75;;;14.20;99.90;;;;;;5070781;28;20431;-70
2022/10/02 04:14:52;;;;;;;18.27;3.80;;;14.20;99.90;;;;;;5070854;28;20106;-72
2022/10/02 04:17:22;;;;;;;22.60;4.20;;;14.20;99.90;;;;;;5070503;28;20048;-71
2022/10/02 04:20:17;;;;;;;20.27;4.10;;;14.20;99.90;;;;;;5070399;28;20039;-69
2022/10/02 04:23:16;;;;;;;25.80;4.15;;;14.20;99.90;;;;;;5070551;28;20035;-70
2022/10/02 04:25:47;;;;;;;20.40;3.70;;;14.20;99.90;;;;;;5052559;28;20060;-69
2022/10/02 04:28:17;;;;;;;17.48;3.45;;;14.20;99.90;;;;;;5070427;28;20027;-69
2022/10/02 04:30:42;;;;;;;;;;;14.20;99.90;;;;;;5062757;28;20025;-69
2022/10/02 04:33:18;;;;;;;19.42;5.10;;;14.10;99.90;;;;;;5068671;28;19909;-70
2022/10/02 04:35:51;;;;;;;12.43;3.45;;;14.10;99.90;;;;;;5070093;28;20033;-69
2022/10/02 04:38:35;;;;;;;17.75;4.00;;;14.10;99.90;;;;;;5073024;28;20044;-70
2022/10/02 04:41:04;;;;;;;14.75;3.10;;;14.00;99.90;;;;;;5072574;28;20086;-70
2022/10/02 04:43:55;;;;;;;13.75;3.22;;;14.00;99.90;;;;;;5072851;28;20437;-70
2022/10/02 04:46:33;;;;;;;18.23;3.13;;;14.00;99.90;;;;;;5072301;28;20032;-71
2022/10/02 04:49:17;;;;;;;15.18;3.03;;;14.00;99.90;;;;;;5072627;28;20037;-70
2022/10/02 04:51:55;;;;;;;12.05;2.97;;;14.00;99.90;;;;;;5072617;28;20086;-70
2022/10/02 04:54:39;;;;;;;10.77;2.60;;;14.00;99.90;;;;;;5072658;28;20029;-72
2022/10/02 04:57:46;;;;;;;14.60;2.67;;;14.00;99.90;;;;;;5072911;28;20032;-69
2022/10/02 05:00:21;;;;;;;13.60;2.58;;;13.90;99.90;;;;;;5071651;28;20040;-71
2022/10/02 05:03:19;;;;;;;11.32;3.25;;;13.90;99.90;;;;;;5072779;28;20101;-70
2022/10/02 05:06:22;;;;;;;9.80;2.50;;;13.90;99.90;;;;;;4985012;28;20059;-69
2022/10/02 05:09:13;;;;;;;8.70;2.63;;;13.90;99.90;;;;;;5072541;28;20413;-70
2022/10/02 05:11:41;;;;;;;11.18;2.40;;;13.90;99.90;;;;;;5072840;28;20036;-69
2022/10/02 05:14:10;;;;;;;12.55;2.58;;;13.80;99.90;;;;;;5072739;28;20041;-70
2022/10/02 05:17:02;;;;;;;16.45;3.47;;;13.90;99.90;;;;;;5072343;28;20050;-69
2022/10/02 05:19:49;;;;;;;19.17;7.38;;;13.90;99.90;;;;;;5072569;28;20101;-69
2022/10/02 05:22:24;;;;;;;19.35;5.70;;;13.90;99.90;;;;;;5054380;28;20028;-70
2022/10/02 05:25:01;;;;;;;14.60;4.50;;;13.90;99.90;;;;;;5072550;28;20031;-69
2022/10/02 05:27:27;;;;;;;13.85;3.65;;;13.90;99.90;;;;;;5072358;28;20032;-69
2022/10/02 05:30:07;;;;;;;10.43;2.53;;;13.90;99.90;;;;;;5071455;28;20025;-69
2022/10/02 05:32:45;;;;;;;11.95;3.05;;;13.90;99.90;;;;;;5072280;28;20036;-69
2022/10/02 05:35:17;;;;;;;13.30;2.33;;;13.80;99.90;;;;;;5072093;28;20357;-69
2022/10/02 05:37:49;;;;;;;11.30;2.50;;;13.90;99.90;;;;;;5072029;28;20040;-70
2022/10/02 05:40:46;;;;;;;7.15;2.08;;;13.90;99.90;;;;;;5071702;28;20027;-70
2022/10/02 05:43:37;;;;;;;8.98;2.92;;;13.90;99.90;;;;;;5072039;28;20103;-69
2022/10/02 05:46:10;;;;;;;9.90;2.40;;;13.90;99.90;;;;;;5071164;28;20085;-70
2022/10/02 05:48:59;;;;;;;9.38;2.20;;;13.90;99.90;;;;;;5072091;28;20074;-69
2022/10/02 05:51:30;;;;;;;11.35;2.90;;;13.80;99.90;;;;;;5053638;28;20489;-69
2022/10/02 05:54:02;;;;;;;13.82;3.10;;;13.90;99.90;;;;;;5072312;28;20090;-70
2022/10/02 05:56:43;;;;;;;12.48;3.70;;;13.90;99.90;;;;;;5072236;28;20040;-70
2022/10/02 05:59:17;;;;;;;11.70;3.50;;;13.80;99.90;;;;;;5071948;28;20098;-70
2022/10/02 06:01:49;;;;;;;10.93;3.70;;;13.90;99.90;;;;;;5071337;28;20123;-69
2022/10/02 06:04:34;;;;;;;15.25;4.15;;;13.90;99.90;;;;;;5053699;28;20039;-68
2022/10/02 06:07:07;;;;;;;13.27;3.72;;;13.90;99.90;;;;;;5071804;28;20082;-69
2022/10/02 06:09:40;;;;;;;11.52;3.28;;;13.90;99.90;;;;;;5071476;28;20047;-69
2022/10/02 06:12:36;;;;;;;11.30;3.20;;;13.90;99.90;;;;;;5053628;28;20055;-69
2022/10/02 06:15:05;;;;;;;15.13;3.80;;;13.90;99.90;;;;;;5050706;28;20036;-70
2022/10/02 06:17:40;;;;;;;;;;;13.90;99.90;;;;;;5071879;28;20119;-71
2022/10/02 06:20:35;;;;;;;14.43;3.97;;;13.90;99.90;;;;;;5069726;28;20321;-74
2022/10/02 06:23:24;;;;;;;13.93;4.05;;;14.00;99.90;;;;;;5051058;28;20132;-69
2022/10/02 06:26:15;;;;;;;13.43;4.00;;;14.00;99.90;;;;;;5034960;28;20095;-68
2022/10/02 06:28:55;;;;;;;17.27;4.20;;;14.00;99.90;;;;;;5071070;28;20163;-68
2022/10/02 06:31:39;;;;;;;15.07;4.85;;;14.10;99.90;;;;;;5069992;28;20032;-68
2022/10/02 06:34:10;;;;;;;16.75;4.50;;;14.00;99.90;;;;;;5054239;28;20041;-67
2022/10/02 06:36:57;;;;;;;16.20;4.57;;;14.00;99.90;;;;;;5070231;28;20369;-69
2022/10/02 06:39:31;;;;;;;16.02;4.05;;;14.10;99.90;;;;;;5070379;28;20522;-68
2022/10/02 06:42:03;;;;;;;20.38;4.90;;;14.10;99.90;;;;;;5051019;28;20040;-68
2022/10/02 06:44:48;;;;;;;18.42;5.13;;;14.10;99.90;;;;;;5070399;28;20028;-67
2022/10/02 06:47:40;;;;;;;17.40;5.10;;;14.10;99.90;;;;;;5070734;28;20105;-67
2022/10/02 06:50:15;;;;;;;19.95;4.40;;;14.20;99.90;;;;;;5052617;28;20346;-67
2022/10/02 06:52:52;;;;;;;20.33;5.15;;;14.20;99.90;;;;;;5070987;28;20468;-67
2022/10/02 06:55:38;;;;;;;13.23;3.83;;;14.20;99.90;;;;;;5070960;28;20039;-67
2022/10/02 06:58:07;;;;;;;17.10;3.95;;;14.30;99.90;;;;;;5070354;28;20447;-66
2022/10/02 07:00:44;;;;;;;15.68;4.53;;;14.30;99.90;;;;;;5051789;28;20055;-66
2022/10/02 07:03:16;;;;;;;12.43;4.68;;;14.30;99.90;;;;;;5070816;28;20033;-68
2022/10/02 07:06:01;;;;;;;16.25;4.28;;;14.30;99.90;;;;;;5070060;28;20032;-67
2022/10/02 07:08:52;;;;;;;17.17;3.95;;;14.30;99.90;;;;;;5070604;28;20021;-68
2022/10/02 07:11:31;;;;;;;15.15;4.03;;;14.30;99.90;;;;;;5070180;28;20039;-69
2022/10/02 07:14:34;;;;;;;19.38;5.40;;;14.30;99.90;;;;;;5053856;28;20028;-68
2022/10/02 07:17:18;;;;;;;16.42;4.80;;;14.30;99.90;;;;;;5071302;28;20508;-68
2022/10/02 07:19:58;;;;;;;20.45;6.53;;;14.30;99.90;;;;;;5053373;28;20032;-68
2022/10/02 07:22:55;;;;;;;16.50;5.60;;;14.40;99.90;;;;;;5071497;28;20037;-68
2022/10/02 07:25:33;;;;;;;19.50;5.60;;;14.40;99.90;;;;;;5071402;28;20032;-68
2022/10/02 07:28:42;;;;;;;17.17;5.75;;;14.50;99.90;;;;;;5071068;28;20025;-70
2022/10/02 07:31:45;;;;;;;19.77;5.60;;;14.50;99.90;;;;;;4970465;28;20042;-67
2022/10/02 07:34:31;;;;;;;15.63;5.60;;;14.50;99.90;;;;;;5071251;28;20131;-69
2022/10/02 07:37:27;;;;;;;14.55;4.88;;;14.50;99.90;;;;;;5068994;28;20042;-68
2022/10/02 07:40:21;;;;;;;19.60;6.18;;;14.60;99.90;;;;;;5069192;28;20028;-69
2022/10/02 07:42:52;;;;;;;13.70;4.45;;;14.60;99.90;;;;;;5070286;28;20025;-69
2022/10/02 07:45:38;;;;;;;13.73;4.80;;;14.60;99.90;;;;;;5071049;28;20051;-70
2022/10/02 07:48:35;;;;;;;13.93;4.60;;;14.60;99.90;;;;;;5069439;28;20024;-71
2022/10/02 07:51:46;;;;;;;14.10;4.10;;;14.70;99.90;;;;;;5071340;28;20434;-70
2022/10/02 07:54:38;;;;;;;14.77;4.00;;;14.70;99.90;;;;;;5070955;28;20064;-73
2022/10/02 07:57:30;;;;;;;12.48;4.00;;;14.70;99.90;;;;;;5069969;28;20037;-74
2022/10/02 08:00:16;;;;;;;14.88;4.47;;;14.80;99.90;;;;;;5070895;28;20036;-72
2022/10/02 08:02:49;;;;;;;16.73;5.93;;;14.90;99.90;;;;;;5069983;28;20032;-68
2022/10/02 08:05:23;;;;;;;18.33;5.05;;;14.90;99.90;;;;;;5070863;28;20041;-71
2022/10/02 08:07:53;;;;;;;15.68;5.20;;;14.90;99.90;;;;;;5052711;28;20025;-70
2022/10/02 08:10:24;;;;;;;15.50;5.22;;;14.90;99.90;;;;;;5053876;28;20400;-71
2022/10/02 08:13:19;;;;;;;15.98;5.43;;;14.90;99.90;;;;;;5073985;28;20119;-71
2022/10/02 08:15:52;;;;;;;20.75;5.95;;;14.90;99.90;;;;;;5055391;28;20053;-70
2022/10/02 08:18:42;;;;;;;21.25;6.00;;;14.90;99.90;;;;;;5074003;28;20040;-71
2022/10/02 08:21:14;;;;;;;17.17;5.97;;;14.80;99.90;;;;;;5055459;28;20048;-69
2022/10/02 08:23:50;;;;;;;18.15;6.13;;;14.80;99.90;;;;;;5073616;28;20033;-71
2022/10/02 08:26:33;;;;;;;18.42;6.03;;;14.80;99.90;;;;;;5075035;28;20025;-69
2022/10/02 08:29:08;;;;;;;21.70;6.13;;;14.80;99.90;;;;;;5074497;28;20024;-69
2022/10/02 08:31:34;;;;;;;18.27;6.43;;;14.80;99.90;;;;;;5056830;28;20500;-71
2022/10/02 08:34:21;;;;;;;22.35;6.82;;;14.80;99.90;;;;;;5074608;28;20101;-70
2022/10/02 08:36:58;;;;;;;22.48;6.68;;;14.80;99.90;;;;;;5074550;28;20424;-71
2022/10/02 08:39:58;;;;;;;19.80;6.07;;;14.90;99.90;;;;;;5074433;28;20485;-70
2022/10/02 08:42:56;;;;;;;22.45;6.25;;;14.90;99.90;;;;;;5056400;28;20435;-70
2022/10/02 08:46:01;;;;;;;19.08;6.32;;;14.90;99.90;;;;;;5037761;28;20041;-70
2022/10/02 08:48:53;;;;;;;19.48;5.75;;;14.90;99.90;;;;;;5074227;28;20107;-70
2022/10/02 08:51:38;;;;;;;21.60;6.60;;;14.90;99.90;;;;;;5074057;28;20029;-69
2022/10/02 08:54:19;;;;;;;23.02;6.55;;;14.90;99.90;;;;;;5074471;28;20029;-70
2022/10/02 08:56:51;;;;;;;18.77;6.55;;;14.90;99.90;;;;;;5073987;28;20025;-70
2022/10/02 08:59:30;;;;;;;15.40;5.97;;;15.00;99.90;;;;;;5073951;28;20396;-71
2022/10/02 09:02:26;;;;;;;22.15;6.47;;;14.90;99.90;;;;;;5073906;28;20031;-71
2022/10/02 09:05:10;;;;;;;20.45;6.15;;;14.90;99.90;;;;;;5074305;28;20036;-70
2022/10/02 09:08:27;;;;;;;18.65;5.93;;;14.90;99.90;;;;;;5073456;28;20035;-71
2022/10/02 09:11:23;;;;;;;14.23;5.20;;;15.00;99.90;;;;;;5031533;28;20048;-72
2022/10/02 09:14:28;;;;;;;14.32;5.05;;;15.10;99.90;;;;;;5056123;28;20042;-73
2022/10/02 09:17:11;;;;;;;12.13;4.13;;;15.10;99.90;;;;;;4972515;28;20049;-71
2022/10/02 09:19:54;;;;;;;16.42;6.20;;;15.10;99.90;;;;;;4972510;28;20491;-71
2022/10/02 09:22:57;;;;;;;11.43;5.35;;;15.10;99.90;;;;;;5031427;28;20058;-71
2022/10/02 09:25:52;;;;;;;13.07;4.38;;;15.10;99.90;;;;;;5055469;28;20040;-72
2022/10/02 09:28:48;;;;;;;15.57;5.03;;;15.10;99.90;;;;;;5073678;28;20060;-70
2022/10/02 09:31:49;;;;;;;12.05;4.00;;;15.10;99.90;;;;;;5073512;28;20404;-72
2022/10/02 09:34:50;;;;;;;12.25;4.07;;;15.20;99.90;;;;;;5073619;28;20020;-72
2022/10/02 09:37:43;;;;;;;13.95;4.55;;;15.20;99.90;;;;;;5073704;28;20420;-72
2022/10/02 09:43:08;;;;;;;10.45;3.35;;;15.20;99.90;;;;;;5091851;28;20101;-74
2022/10/02 09:46:01;;;;;;;9.45;3.30;;;15.20;99.90;;;;;;5076643;28;20384;-74
2022/10/02 09:49:07;;;;;;;11.32;3.30;;;15.20;99.90;;;;;;5076107;28;20028;-74
2022/10/02 09:51:48;;;;;;;11.10;3.45;;;15.20;99.90;;;;;;5070041;28;20036;-73
2022/10/02 09:54:41;;;;;;;10.35;3.22;;;15.10;99.90;;;;;;5093075;28;20023;-74
2022/10/02 09:57:11;;;;;;;5.32;2.92;;;15.20;99.90;;;;;;5092974;28;20028;-74
2022/10/02 09:59:58;;;;;;;8.90;2.97;;;15.10;99.90;;;;;;5092729;28;20417;-74
2022/10/02 10:02:49;;;;;;;9.70;3.72;;;15.20;99.90;;;;;;5092822;28;20085;-74
2022/10/02 10:05:34;;;;;;;9.25;3.60;;;15.20;99.90;;;;;;5092825;28;20540;-74
2022/10/02 10:08:37;;;;;;;10.77;4.25;;;15.20;99.90;;;;;;5093226;28;20172;-74
2022/10/02 10:11:46;;;;;;;10.00;3.75;;;15.30;99.90;;;;;;5074566;28;20073;-74
2022/10/02 10:14:30;;;;;;;14.90;4.18;;;15.40;99.90;;;;;;5058995;28;20043;-74
2022/10/02 10:17:29;;;;;;;13.77;4.25;;;15.50;99.90;;;;;;5092577;28;20030;-74
2022/10/02 10:20:29;;;;;;;9.70;3.72;;;15.50;99.90;;;;;;5092454;28;20024;-74
2022/10/02 10:23:20;;;;;;;13.27;3.92;;;15.60;99.90;;;;;;5092217;28;20051;-74
2022/10/02 10:26:22;;;;;;;12.07;4.25;;;15.50;99.90;;;;;;5092389;28;20103;-74
2022/10/02 10:29:13;;;;;;;11.57;4.55;;;15.60;99.90;;;;;;5092314;28;20024;-74
2022/10/02 10:32:16;;;;;;;8.98;4.03;;;15.60;99.90;;;;;;5092316;28;20044;-74
2022/10/02 10:35:23;;;;;;;14.30;4.15;;;15.60;99.90;;;;;;5091362;28;20036;-74
2022/10/02 10:38:33;;;;;;;14.55;4.07;;;15.60;99.90;;;;;;5089209;28;20048;-74
2022/10/02 10:41:26;;;;;;;15.82;4.03;;;15.70;99.90;;;;;;5091930;28;20472;-74
2022/10/02 10:43:58;;;;;;;9.40;3.35;;;15.70;99.90;;;;;;5092430;28;20627;-75
2022/10/02 10:46:52;;;;;;;9.10;4.18;;;15.70;99.90;;;;;;5091933;28;20031;-74
2022/10/02 10:49:48;;;;;;;14.48;4.25;;;15.70;99.90;;;;;;5073878;28;20519;-74
2022/10/02 10:52:30;;;;;;;12.80;3.50;;;15.70;99.90;;;;;;5091990;28;20028;-74
2022/10/02 10:55:02;;;;;;;15.25;4.68;;;15.70;99.90;;;;;;5091912;28;20060;-74
2022/10/02 10:57:58;;;;;;;15.40;4.20;;;15.80;99.90;;;;;;5091907;28;20052;-74
2022/10/02 11:00:58;;;;;;;12.75;4.65;;;15.90;99.90;;;;;;5091741;28;20034;-74
2022/10/02 11:03:43;;;;;;;14.68;3.70;;;16.00;99.90;;;;;;5091803;28;20110;-74
2022/10/02 11:06:21;;;;;;;15.75;3.78;;;16.00;99.90;;;;;;5091447;28;20035;-74
2022/10/02 11:09:16;;;;;;;10.55;3.28;;;16.00;99.90;;;;;;5073621;28;20078;-74
2022/10/02 11:11:56;;;;;;;16.58;3.28;;;16.10;99.90;;;;;;5051693;28;20454;-74
2022/10/02 11:14:36;;;;;;;12.65;3.85;;;16.10;99.90;;;;;;5073338;28;20031;-74
2022/10/02 11:17:13;;;;;;;12.68;3.60;;;16.10;99.90;;;;;;5091586;28;20032;-74
2022/10/02 11:20:14;;;;;;;9.82;2.78;;;16.10;99.90;;;;;;5073752;28;20103;-74
2022/10/02 11:23:00;;;;;;;11.38;3.65;;;16.10;99.90;;;;;;5091291;28;20032;-75
2022/10/02 11:25:32;;;;;;;12.20;3.58;;;16.00;99.90;;;;;;5091452;28;20032;-75
2022/10/02 11:28:03;;;;;;;11.43;3.10;;;16.00;99.90;;;;;;5091422;28;20043;-75
2022/10/02 11:30:54;;;;;;;11.57;3.00;;;16.00;99.90;;;;;;5091175;28;20385;-75
2022/10/02 11:33:38;;;;;;;14.13;3.30;;;15.90;99.90;;;;;;5091715;28;20380;-75
2022/10/02 11:36:25;;;;;;;12.20;2.92;;;16.00;99.90;;;;;;5073262;28;20028;-75
2022/10/02 11:39:15;;;;;;;12.68;2.70;;;16.00;99.90;;;;;;5091161;28;20540;-75
2022/10/02 11:42:19;;;;;;;11.05;2.70;;;16.10;99.90;;;;;;5072770;28;20106;-74
2022/10/02 11:45:13;;;;;;;17.10;3.85;;;16.10;99.90;;;;;;5072254;28;20312;-75
2022/10/02 11:48:04;;;;;;;16.25;4.50;;;16.10;99.90;;;;;;5091540;28;20101;-75
2022/10/02 11:50:58;;;;;;;9.82;3.58;;;16.20;99.90;;;;;;5090965;28;20104;-75
2022/10/02 11:53:34;;;;;;;14.90;3.67;;;16.20;99.90;;;;;;5090979;28;20024;-74
2022/10/02 11:56:31;;;;;;;12.63;3.25;;;16.30;99.90;;;;;;5091107;28;20032;-74
2022/10/02 11:59:22;;;;;;;16.40;3.92;;;16.40;99.90;;;;;;5090800;28;20031;-74
2022/10/02 12:02:17;;;;;;;10.85;3.05;;;16.40;99.90;;;;;;5090884;28;20024;-74
2022/10/02 12:04:51;;;;;;;10.38;3.30;;;16.50;99.90;;;;;;5090897;28;20025;-75
2022/10/02 12:07:25;;;;;;;13.88;3.00;;;16.50;99.90;;;;;;5090886;28;20024;-74
2022/10/02 12:10:10;;;;;;;11.65;3.55;;;16.60;99.90;;;;;;5091122;28;20035;-74
2022/10/02 12:12:50;;;;;;;11.60;3.78;;;16.60;99.90;;;;;;5090842;28;20051;-74
2022/10/02 12:15:34;;;;;;;13.82;3.80;;;16.70;99.90;;;;;;5072768;28;20549;-74
2022/10/02 12:18:18;;;;;;;15.77;4.47;;;16.70;99.90;;;;;;5090755;28;20047;-74
2022/10/02 12:26:59;;;;;;;14.90;4.05;;;16.90;99.90;;;;;;5090632;28;20040;-74
2022/10/02 12:29:39;;;;;;;14.93;3.75;;;16.90;99.90;;;;;;5090479;28;20027;-74
2022/10/02 12:32:37;;;;;;;14.70;4.10;;;16.90;99.90;;;;;;5072604;28;20032;-74
2022/10/02 12:35:18;;;;;;;13.35;2.95;;;16.90;99.90;;;;;;5090633;28;20032;-74
2022/10/02 12:37:56;;;;;;;17.40;3.95;;;16.80;99.90;;;;;;5090471;28;20035;-74
2022/10/02 12:40:51;;;;;;;14.50;3.00;;;16.80;99.90;;;;;;5055606;28;20052;-74
2022/10/02 12:43:45;;;;;;;12.85;3.13;;;16.80;99.90;;;;;;5090578;28;20028;-74
2022/10/02 12:46:26;;;;;;;10.77;3.00;;;16.80;99.90;;;;;;5090325;28;20024;-74
2022/10/02 12:49:44;;;;;;;13.95;3.03;;;16.80;99.90;;;;;;5090396;28;20028;-74
2022/10/02 12:52:21;;;;;;;10.60;2.47;;;16.80;99.90;;;;;;5020270;28;20064;-74
2022/10/02 12:54:57;;;;;;;9.55;2.40;;;16.70;99.90;;;;;;5090452;28;20024;-74
2022/10/02 13:00:18;;;;;;;14.02;4.55;;;16.60;99.90;;;;;;5093799;28;20032;-74
2022/10/02 13:03:10;;;;;;;12.55;3.72;;;16.70;99.90;;;;;;5093949;28;20031;-74
2022/10/02 13:05:51;;;;;;;11.27;3.30;;;16.60;99.90;;;;;;5094015;28;20413;-74
2022/10/02 13:08:54;;;;;;;11.75;3.22;;;16.70;99.90;;;;;;5075991;28;20024;-74
2022/10/02 13:11:39;;;;;;;11.80;2.53;;;16.70;99.90;;;;;;5075543;28;20625;-74
2022/10/02 13:14:26;;;;;;;14.40;3.15;;;16.80;99.90;;;;;;5093995;28;20036;-74
2022/10/02 13:17:10;;;;;;;13.20;2.50;;;16.90;99.90;;;;;;5075551;28;20604;-74
2022/10/02 13:20:11;;;;;;;14.50;2.63;;;16.90;99.90;;;;;;5093936;28;20683;-74
2022/10/02 13:22:53;;;;;;;11.88;2.60;;;16.90;99.90;;;;;;5093555;28;20503;-74
2022/10/02 13:25:36;;;;;;;13.68;2.78;;;16.90;99.90;;;;;;5093648;28;20034;-74
2022/10/02 13:28:38;;;;;;;12.23;3.53;;;16.80;99.90;;;;;;5075634;28;20115;-74
2022/10/02 13:31:38;;;;;;;11.30;2.80;;;16.90;99.90;;;;;;5093492;28;20460;-74
2022/10/02 13:34:22;;;;;;;15.85;4.07;;;16.90;99.90;;;;;;5093620;28;20036;-75
2022/10/02 13:36:51;;;;;;;12.63;2.65;;;16.80;99.90;;;;;;5093581;28;20032;-75
2022/10/02 13:39:51;;;;;;;11.68;3.13;;;16.80;99.90;;;;;;5093314;28;20059;-75
2022/10/02 13:42:27;;;;;;;11.73;2.92;;;16.80;99.90;;;;;;5068135;28;20051;-75
2022/10/02 13:45:25;;;;;;;13.10;2.70;;;16.90;99.90;;;;;;5093554;28;20032;-75
2022/10/02 13:48:19;;;;;;;14.20;3.60;;;16.90;99.90;;;;;;5093176;28;20036;-75
2022/10/02 13:51:07;;;;;;;13.73;3.85;;;16.80;99.90;;;;;;5092994;28;20085;-75
2022/10/02 13:53:42;;;;;;;12.50;3.33;;;16.90;99.90;;;;;;5093118;28;20032;-74
2022/10/02 13:56:28;;;;;;;9.70;3.22;;;16.90;99.90;;;;;;5074964;28;20093;-75
2022/10/02 13:59:19;;;;;;;10.48;2.53;;;16.90;99.90;;;;;;5092519;28;20036;-75
2022/10/02 14:01:45;;;;;;;17.73;3.17;;;17.00;99.90;;;;;;5092986;28;20036;-75
2022/10/02 14:04:20;;;;;;;15.20;3.17;;;17.00;99.90;;;;;;5074769;28;20411;-75
2022/10/02 14:07:05;;;;;;;14.32;2.97;;;17.00;99.90;;;;;;5092882;28;20028;-74
2022/10/02 14:09:56;;;;;;;9.32;2.63;;;17.10;99.90;;;;;;5074576;28;20104;-75